createdAt,value
2023-04-10T00:02:53.218Z,3.65
2023-04-10T00:05:57.399Z,3.73
2023-04-10T00:08:59.988Z,3.79
2023-04-10T00:12:02.828Z,3.82
2023-04-10T00:15:05.871Z,3.91
2023-04-10T00:18:08.883Z,3.97
2023-04-10T00:21:11.690Z,4.01
2023-04-10T00:24:14.421Z,4.04
2023-04-10T00:27:16.905Z,4.05
2023-04-10T00:30:21.104Z,4.02
2023-04-10T00:33:23.639Z,3.96
2023-04-10T00:36:27.935Z,3.88
2023-04-10T00:39:30.457Z,3.83
2023-04-10T00:42:33.399Z,3.82
2023-04-10T00:45:36.184Z,3.81
2023-04-10T00:48:39.734Z,3.79
2023-04-10T00:51:43.754Z,3.79
2023-04-10T00:54:46.696Z,3.75
2023-04-10T00:57:49.270Z,3.74
2023-04-10T01:00:52.586Z,3.70
2023-04-10T01:03:55.892Z,3.67
2023-04-10T01:07:11.252Z,3.65
2023-04-10T01:10:24.228Z,3.62
2023-04-10T01:13:30.572Z,3.60
2023-04-10T01:16:53.225Z,3.58
2023-04-10T01:20:16.664Z,3.54
2023-04-10T01:23:26.810Z,3.53
2023-04-10T01:27:27.144Z,3.52
2023-04-10T01:30:32.457Z,3.54
2023-04-10T01:33:40.880Z,3.57
2023-04-10T01:37:06.874Z,3.57
2023-04-10T01:40:11.605Z,3.58
2023-04-10T01:43:14.767Z,3.57
2023-04-10T01:46:19.406Z,3.47
2023-04-10T01:49:24.284Z,3.57
2023-04-10T01:52:31.024Z,3.58
2023-04-10T01:55:34.731Z,3.63
2023-04-10T01:58:38.553Z,3.67
2023-04-10T02:01:41.511Z,3.69
2023-04-10T02:04:46.966Z,3.73
2023-04-10T02:08:04.508Z,3.72
2023-04-10T02:11:37.253Z,3.68
2023-04-10T02:14:43.048Z,3.68
2023-04-10T02:17:46.532Z,3.65
2023-04-10T02:20:49.477Z,3.61
2023-04-10T02:23:52.303Z,3.53
2023-04-10T02:26:55.852Z,3.43
2023-04-10T02:29:59.178Z,3.39
2023-04-10T02:33:02.324Z,3.30
2023-04-10T02:36:05.940Z,3.23
2023-04-10T02:39:08.940Z,3.18
2023-04-10T02:42:14.148Z,3.12
2023-04-10T02:45:17.068Z,3.08
2023-04-10T02:48:19.866Z,3.09
2023-04-10T02:51:26.504Z,3.07
2023-04-10T02:54:29.744Z,3.01
2023-04-10T02:57:32.722Z,3.02
2023-04-10T03:00:35.400Z,3.01
2023-04-10T03:03:38.623Z,3.02
2023-04-10T03:06:41.370Z,3.02
2023-04-10T03:09:45.262Z,3.01
2023-04-10T03:12:48.793Z,3.01
2023-04-10T03:15:51.871Z,2.98
2023-04-10T03:18:54.581Z,2.96
2023-04-10T03:21:57.602Z,2.95
2023-04-10T03:25:01.313Z,2.91
2023-04-10T03:28:05.612Z,2.88
2023-04-10T03:31:09.763Z,2.88
2023-04-10T03:34:12.874Z,2.86
2023-04-10T03:37:15.671Z,2.86
2023-04-10T03:40:18.698Z,2.83
2023-04-10T03:43:21.342Z,2.89
2023-04-10T03:46:24.377Z,2.89
2023-04-10T03:49:27.317Z,2.92
2023-04-10T03:52:32.925Z,2.94
2023-04-10T03:55:36.922Z,2.96
2023-04-10T03:58:39.928Z,2.94
2023-04-10T04:01:43.082Z,3.01
2023-04-10T04:04:46.726Z,3.07
2023-04-10T04:07:49.541Z,3.07
2023-04-10T04:10:53.353Z,3.08
2023-04-10T04:13:57.053Z,3.09
2023-04-10T04:17:00.235Z,3.08
2023-04-10T04:20:03.316Z,3.12
2023-04-10T04:23:09.303Z,3.08
2023-04-10T04:26:12.527Z,3.12
2023-04-10T04:29:15.946Z,3.14
2023-04-10T04:32:18.784Z,3.18
2023-04-10T04:35:26.494Z,3.20
2023-04-10T04:38:30.530Z,3.23
2023-04-10T04:41:33.900Z,3.27
2023-04-10T04:44:37.323Z,3.23
2023-04-10T04:47:40.431Z,3.32
2023-04-10T04:50:43.385Z,3.33
2023-04-10T04:53:47.177Z,3.35
2023-04-10T04:56:50.130Z,3.38
2023-04-10T04:59:53.638Z,3.41
2023-04-10T05:02:56.826Z,3.44
2023-04-10T05:06:03.650Z,3.49
2023-04-10T05:09:08.994Z,3.54
2023-04-10T05:12:14.894Z,3.58
2023-04-10T05:15:18.185Z,3.63
2023-04-10T05:18:23.871Z,3.68
2023-04-10T05:21:29.527Z,3.74
2023-04-10T05:24:35.907Z,3.81
2023-04-10T05:27:39.069Z,3.90
2023-04-10T05:30:42.656Z,4.00
2023-04-10T05:33:45.812Z,4.09
2023-04-10T05:36:48.760Z,4.19
2023-04-10T05:39:51.676Z,4.31
2023-04-10T05:42:54.780Z,4.45
2023-04-10T05:45:57.922Z,4.59
2023-04-10T05:49:01.689Z,4.71
2023-04-10T05:52:05.477Z,4.84
2023-04-10T05:55:08.960Z,5.00
2023-04-10T05:58:12.932Z,5.07
2023-04-10T06:01:18.111Z,5.17
2023-04-10T06:04:21.677Z,5.29
2023-04-10T06:07:27.161Z,5.36
2023-04-10T06:10:31.139Z,5.46
2023-04-10T06:13:33.867Z,5.58
2023-04-10T06:16:37.561Z,5.75
2023-04-10T06:19:40.491Z,5.84
2023-04-10T06:22:43.783Z,5.98
2023-04-10T06:25:46.339Z,6.08
2023-04-10T06:28:49.504Z,6.25
2023-04-10T06:31:52.770Z,6.48
2023-04-10T06:34:56.431Z,6.59
2023-04-10T06:37:59.286Z,6.74
2023-04-10T06:41:02.390Z,6.88
2023-04-10T06:44:05.178Z,7.13
2023-04-10T06:47:09.339Z,7.28
2023-04-10T06:50:11.943Z,7.45
2023-04-10T06:53:14.861Z,7.68
2023-04-10T06:56:17.397Z,7.85
2023-04-10T06:59:20.478Z,8.00
2023-04-10T07:02:23.101Z,8.14
2023-04-10T07:05:26.394Z,8.36
2023-04-10T07:08:29.625Z,8.52
2023-04-10T07:11:32.469Z,8.69
2023-04-10T07:14:35.804Z,8.97
2023-04-10T07:17:38.951Z,9.05
2023-04-10T07:20:41.683Z,9.21
2023-04-10T07:23:44.872Z,9.42
2023-04-10T07:26:47.483Z,9.59
2023-04-10T07:29:50.811Z,9.79
2023-04-10T07:32:53.470Z,9.94
2023-04-10T07:35:56.795Z,10.10
2023-04-10T07:38:59.492Z,10.29
2023-04-10T07:42:02.636Z,10.51
2023-04-10T07:45:05.798Z,10.71
2023-04-10T07:48:08.701Z,11.01
2023-04-10T07:51:11.616Z,11.07
2023-04-10T07:54:14.756Z,11.32
2023-04-10T07:57:17.542Z,11.54
2023-04-10T08:00:20.545Z,11.75
2023-04-10T08:03:23.888Z,11.98
2023-04-10T08:06:26.640Z,12.11
2023-04-10T08:09:29.589Z,12.36
2023-04-10T08:12:34.119Z,12.54
2023-04-10T08:15:36.913Z,12.65
2023-04-10T08:18:39.602Z,12.44
2023-04-10T08:21:42.379Z,12.63
2023-04-10T08:24:45.277Z,12.85
2023-04-10T08:27:48.078Z,13.09
2023-04-10T08:30:53.491Z,13.23
2023-04-10T08:33:57.149Z,13.25
2023-04-10T08:36:59.968Z,13.14
2023-04-10T08:40:03.365Z,13.05
2023-04-10T08:43:06.092Z,13.20
2023-04-10T08:46:09.375Z,13.32
2023-04-10T08:49:39.320Z,13.56
2023-04-10T08:52:44.262Z,13.75
2023-04-10T08:55:47.169Z,13.64
2023-04-10T08:58:51.860Z,13.71
2023-04-10T09:01:54.521Z,13.73
2023-04-10T09:05:00.539Z,14.01
2023-04-10T09:08:04.185Z,14.35
2023-04-10T09:11:07.204Z,14.24
2023-04-10T09:14:24.483Z,14.31
2023-04-10T09:17:27.484Z,14.38
2023-04-10T09:20:31.293Z,14.07
2023-04-10T09:23:34.093Z,14.06
2023-04-10T09:26:36.653Z,14.00
2023-04-10T09:29:49.220Z,13.72
2023-04-10T09:32:51.802Z,13.48
2023-04-10T09:35:55.137Z,13.29
2023-04-10T09:38:58.056Z,13.22
2023-04-10T09:42:00.930Z,13.02
2023-04-10T09:45:06.682Z,12.91
2023-04-10T09:48:09.535Z,12.76
2023-04-10T09:51:29.926Z,12.73
2023-04-10T09:54:39.420Z,12.86
2023-04-10T09:57:42.093Z,12.96
2023-04-10T10:00:47.674Z,12.96
2023-04-10T10:03:50.766Z,12.91
2023-04-10T10:06:53.419Z,12.89
2023-04-10T10:09:56.475Z,12.82
2023-04-10T10:13:02.597Z,12.63
2023-04-10T10:16:25.279Z,12.59
2023-04-10T10:19:34.316Z,12.48
2023-04-10T10:22:38.257Z,12.37
2023-04-10T10:25:42.002Z,12.29
2023-04-10T10:28:45.897Z,12.31
2023-04-10T10:31:48.731Z,12.36
2023-04-10T10:34:53.045Z,12.42
2023-04-10T10:37:55.705Z,12.38
2023-04-10T10:41:16.766Z,12.17
2023-04-10T10:44:42.447Z,12.33
2023-04-10T10:47:48.712Z,12.28
2023-04-10T10:51:00.383Z,12.26
2023-04-10T10:54:03.548Z,12.20
2023-04-10T10:57:54.814Z,12.16
2023-04-10T11:00:57.747Z,12.18
2023-04-10T11:04:01.017Z,12.10
2023-04-10T11:07:03.978Z,12.12
2023-04-10T11:10:06.909Z,11.99
2023-04-10T11:13:17.654Z,11.90
2023-04-10T11:16:21.349Z,11.81
2023-04-10T11:19:26.179Z,11.69
2023-04-10T11:22:29.103Z,11.52
2023-04-10T11:25:49.377Z,11.38
2023-04-10T11:28:52.249Z,11.12
2023-04-10T11:32:00.687Z,11.00
2023-04-10T11:35:05.106Z,10.86
2023-04-10T11:38:21.080Z,10.78
2023-04-10T11:41:34.399Z,10.70
2023-04-10T11:44:39.436Z,10.54
2023-04-10T11:47:42.150Z,10.53
2023-04-10T11:50:45.633Z,10.52
2023-04-10T11:53:48.170Z,10.48
2023-04-10T11:56:59.739Z,10.41
2023-04-10T12:00:02.407Z,10.47
2023-04-10T12:03:08.856Z,10.57
2023-04-10T12:06:13.432Z,10.56
2023-04-10T12:09:17.524Z,10.57
2023-04-10T12:12:20.669Z,10.48
2023-04-10T12:15:27.464Z,10.48
2023-04-10T12:18:31.229Z,10.47
2023-04-10T12:21:36.848Z,10.64
2023-04-10T12:24:49.813Z,10.67
2023-04-10T12:27:53.173Z,10.78
2023-04-10T12:30:56.753Z,10.91
2023-04-10T12:34:00.936Z,10.98
2023-04-10T12:37:04.597Z,11.68
2023-04-10T12:40:07.811Z,12.52
2023-04-10T12:43:10.809Z,12.57
2023-04-10T12:46:27.066Z,12.06
2023-04-10T12:49:30.278Z,11.75
2023-04-10T12:52:32.923Z,11.76
2023-04-10T12:55:35.771Z,11.83
2023-04-10T12:58:38.843Z,11.97
2023-04-10T13:01:41.740Z,12.06
2023-04-10T13:04:44.408Z,12.33
2023-04-10T13:07:49.257Z,12.23
2023-04-10T13:10:52.498Z,12.40
2023-04-10T13:13:55.434Z,12.95
2023-04-10T13:16:58.325Z,13.65
2023-04-10T13:20:01.173Z,14.12
2023-04-10T13:23:04.073Z,14.62
2023-04-10T13:26:06.949Z,15.01
2023-04-10T13:29:09.611Z,15.11
2023-04-10T13:32:12.523Z,15.07
2023-04-10T13:35:15.340Z,14.89
2023-04-10T13:38:20.038Z,14.80
2023-04-10T13:41:24.004Z,14.67
2023-04-10T13:44:29.401Z,14.93
2023-04-10T13:47:32.136Z,15.25
2023-04-10T13:50:35.073Z,14.90
2023-04-10T13:53:37.691Z,14.91
2023-04-10T13:56:41.353Z,14.94
2023-04-10T13:59:44.307Z,15.00
2023-04-10T14:02:47.897Z,15.02
2023-04-10T14:05:52.680Z,14.74
2023-04-10T14:08:55.647Z,14.81
2023-04-10T14:11:58.781Z,14.76
2023-04-10T14:15:01.352Z,14.84
2023-04-10T14:18:04.332Z,14.93
2023-04-10T14:21:07.363Z,15.06
2023-04-10T14:24:11.289Z,15.08
2023-04-10T14:27:13.874Z,15.18
2023-04-10T14:30:17.121Z,15.25
2023-04-10T14:33:20.091Z,15.08
2023-04-10T14:36:23.336Z,15.16
2023-04-10T14:39:27.297Z,15.16
2023-04-10T14:42:30.316Z,15.10
2023-04-10T14:45:33.393Z,15.03
2023-04-10T14:48:36.299Z,15.03
2023-04-10T14:51:38.954Z,14.92
2023-04-10T14:54:41.921Z,14.98
2023-04-10T14:57:44.456Z,14.96
2023-04-10T15:00:47.352Z,14.96
2023-04-10T15:03:50.017Z,15.01
2023-04-10T15:06:53.285Z,15.06
2023-04-10T15:09:59.056Z,15.14
2023-04-10T15:13:01.933Z,14.99
2023-04-10T15:16:06.244Z,15.00
2023-04-10T15:19:09.053Z,14.93
2023-04-10T15:22:11.612Z,14.78
2023-04-10T15:25:14.916Z,14.57
2023-04-10T15:28:17.581Z,14.40
2023-04-10T15:31:26.568Z,14.23
2023-04-10T15:34:29.124Z,14.13
2023-04-10T15:37:32.195Z,14.02
2023-04-10T15:40:35.037Z,13.91
2023-04-10T15:43:38.037Z,13.84
2023-04-10T15:46:40.622Z,13.77
2023-04-10T15:49:43.556Z,13.67
2023-04-10T15:52:46.245Z,13.63
2023-04-10T15:55:49.013Z,13.60
2023-04-10T15:58:51.882Z,13.55
2023-04-10T16:01:54.852Z,13.57
2023-04-10T16:04:58.317Z,13.50
2023-04-10T16:08:02.652Z,13.45
2023-04-10T16:11:05.885Z,13.37
2023-04-10T16:14:08.656Z,13.31
2023-04-10T16:17:11.597Z,13.22
2023-04-10T16:20:14.394Z,13.16
2023-04-10T16:23:18.003Z,13.11
2023-04-10T16:26:21.279Z,13.02
2023-04-10T16:29:24.386Z,12.92
2023-04-10T16:32:27.288Z,12.86
2023-04-10T16:35:30.952Z,12.73
2023-04-10T16:38:34.652Z,12.63
2023-04-10T16:41:37.578Z,12.44
2023-04-10T16:44:40.756Z,12.15
2023-04-10T16:47:44.620Z,11.84
2023-04-10T16:50:47.237Z,11.53
2023-04-10T16:53:50.260Z,11.29
2023-04-10T16:56:52.906Z,11.14
2023-04-10T16:59:57.931Z,11.11
2023-04-10T17:03:00.697Z,11.02
2023-04-10T17:06:03.684Z,10.87
2023-04-10T17:09:06.687Z,10.66
2023-04-10T17:12:09.517Z,10.53
2023-04-10T17:15:12.505Z,10.42
2023-04-10T17:18:15.503Z,10.38
2023-04-10T17:21:18.086Z,10.33
2023-04-10T17:24:21.548Z,10.23
2023-04-10T17:27:24.238Z,10.12
2023-04-10T17:30:28.925Z,10.07
2023-04-10T17:33:31.461Z,10.03
2023-04-10T17:36:34.352Z,10.00
2023-04-10T17:39:37.258Z,9.90
2023-04-10T17:42:40.164Z,9.82
2023-04-10T17:45:42.676Z,9.90
2023-04-10T17:48:45.789Z,10.05
2023-04-10T17:51:48.720Z,10.07
2023-04-10T17:54:51.859Z,10.05
2023-04-10T17:57:55.763Z,10.05
2023-04-10T18:00:58.982Z,10.05
2023-04-10T18:04:03.485Z,9.94
2023-04-10T18:07:06.646Z,9.68
2023-04-10T18:10:11.313Z,9.50
2023-04-10T18:13:14.502Z,9.47
2023-04-10T18:16:18.068Z,9.39
2023-04-10T18:19:20.806Z,9.31
2023-04-10T18:22:24.181Z,9.23
2023-04-10T18:25:27.254Z,9.22
2023-04-10T18:28:31.143Z,9.13
2023-04-10T18:31:33.750Z,9.14
2023-04-10T18:34:36.817Z,9.17
2023-04-10T18:37:40.862Z,9.12
2023-04-10T18:40:46.833Z,9.15
2023-04-10T18:44:01.804Z,9.15
2023-04-10T18:47:08.230Z,9.14
2023-04-10T18:50:11.779Z,9.18
2023-04-10T18:53:14.939Z,9.15
2023-04-10T18:56:17.686Z,9.19
2023-04-10T18:59:22.936Z,9.20
2023-04-10T19:02:28.394Z,9.25
2023-04-10T19:05:34.730Z,9.25
2023-04-10T19:08:46.288Z,9.15
2023-04-10T19:11:49.872Z,9.09
2023-04-10T19:14:52.671Z,9.01
2023-04-10T19:17:56.544Z,8.89
2023-04-10T19:20:59.564Z,8.83
2023-04-10T19:24:02.873Z,8.81
2023-04-10T19:27:06.536Z,8.85
2023-04-10T19:30:09.890Z,8.82
2023-04-10T19:33:12.647Z,8.73
2023-04-10T19:36:17.903Z,8.70
2023-04-10T19:39:20.820Z,8.64
2023-04-10T19:42:24.028Z,8.64
2023-04-10T19:45:29.016Z,8.66
2023-04-10T19:48:32.029Z,8.65
2023-04-10T19:51:34.612Z,8.61
2023-04-10T19:54:37.559Z,8.58
2023-04-10T19:57:40.486Z,8.56
2023-04-10T20:00:43.780Z,8.46
2023-04-10T20:03:46.993Z,8.51
2023-04-10T20:06:49.911Z,8.45
2023-04-10T20:09:52.814Z,8.41
2023-04-10T20:12:55.568Z,8.33
2023-04-10T20:15:58.564Z,8.29
2023-04-10T20:19:01.163Z,8.23
2023-04-10T20:22:04.187Z,8.15
2023-04-10T20:25:07.511Z,8.11
2023-04-10T20:28:10.515Z,8.07
2023-04-10T20:31:13.214Z,8.06
2023-04-10T20:34:16.244Z,8.07
2023-04-10T20:37:21.879Z,8.03
2023-04-10T20:40:24.882Z,8.06
2023-04-10T20:43:27.597Z,8.06
2023-04-10T20:46:30.667Z,8.00
2023-04-10T20:49:33.389Z,8.10
2023-04-10T20:52:36.559Z,8.09
2023-04-10T20:55:39.747Z,8.04
2023-04-10T20:58:42.943Z,7.97
2023-04-10T21:01:45.797Z,7.89
2023-04-10T21:04:50.246Z,7.80
2023-04-10T21:07:54.340Z,7.69
2023-04-10T21:10:59.544Z,7.68
2023-04-10T21:14:02.146Z,7.72
2023-04-10T21:17:05.131Z,7.76
2023-04-10T21:20:08.143Z,7.78
2023-04-10T21:23:11.205Z,7.83
2023-04-10T21:26:13.862Z,7.88
2023-04-10T21:29:16.902Z,7.85
2023-04-10T21:32:20.478Z,7.95
2023-04-10T21:35:24.773Z,7.98
2023-04-10T21:38:27.326Z,8.00
2023-04-10T21:41:30.475Z,8.01
2023-04-10T21:44:33.096Z,7.97
2023-04-10T21:47:36.004Z,7.88
2023-04-10T21:50:40.194Z,7.78
2023-04-10T21:53:43.195Z,7.66
2023-04-10T21:56:46.324Z,7.54
2023-04-10T21:59:49.072Z,7.46
2023-04-10T22:02:52.032Z,7.36
2023-04-10T22:05:55.390Z,7.34
2023-04-10T22:08:57.938Z,7.28
2023-04-10T22:12:01.077Z,7.28
2023-04-10T22:15:04.177Z,7.31
2023-04-10T22:18:07.234Z,7.23
2023-04-10T22:21:09.850Z,7.33
2023-04-10T22:24:12.655Z,7.38
2023-04-10T22:27:15.349Z,7.38
2023-04-10T22:30:18.540Z,7.34
2023-04-10T22:33:21.402Z,7.31
2023-04-10T22:36:24.472Z,7.23
2023-04-10T22:39:27.144Z,7.18
2023-04-10T22:42:31.769Z,7.06
2023-04-10T22:45:34.755Z,7.11
2023-04-10T22:48:38.163Z,7.08
2023-04-10T22:51:41.922Z,7.02
2023-04-10T22:54:44.745Z,7.01
2023-04-10T22:57:49.389Z,6.99
2023-04-10T23:00:52.472Z,6.91
2023-04-10T23:03:55.722Z,6.95
2023-04-10T23:06:58.515Z,6.88
2023-04-10T23:10:01.165Z,6.86
2023-04-10T23:13:04.133Z,6.85
2023-04-10T23:16:07.119Z,6.84
2023-04-10T23:19:10.024Z,6.81
2023-04-10T23:22:12.957Z,6.77
2023-04-10T23:25:15.815Z,6.73
2023-04-10T23:28:18.494Z,6.71
2023-04-10T23:31:21.454Z,6.67
2023-04-10T23:34:24.296Z,6.63
2023-04-10T23:37:27.372Z,6.61
2023-04-10T23:40:30.601Z,6.56
2023-04-10T23:43:33.814Z,6.56
2023-04-10T23:46:36.617Z,6.49
2023-04-10T23:49:39.656Z,6.47
2023-04-10T23:52:42.362Z,6.42
2023-04-10T23:55:45.381Z,6.38
2023-04-10T23:58:48.446Z,6.38
